sensor_id;sensor_type;location;lat;lon;timestamp;P1;durP1;ratioP1;P2;durP2;ratioP2
76063;SDS011;64762;52.006;8.424;2023-07-29T00:01:01;4.00;;;2.00;;
76063;SDS011;64762;52.006;8.424;2023-07-29T00:03:27;10.80;;;2.87;;
76063;SDS011;64762;52.006;8.424;2023-07-29T00:05:52;7.25;;;2.10;;
76063;SDS011;64762;52.006;8.424;2023-07-29T00:08:17;4.03;;;1.93;;
76063;SDS011;64762;52.006;8.424;2023-07-29T00:10:43;4.63;;;1.80;;
76063;SDS011;64762;52.006;8.424;2023-07-29T00:13:08;4.63;;;2.03;;
76063;SDS011;64762;52.006;8.424;2023-07-29T00:15:33;4.30;;;1.90;;
76063;SDS011;64762;52.006;8.424;2023-07-29T00:17:59;3.78;;;2.03;;
76063;SDS011;64762;52.006;8.424;2023-07-29T00:20:25;4.57;;;2.45;;
76063;SDS011;64762;52.006;8.424;2023-07-29T00:22:50;4.10;;;1.95;;
76063;SDS011;64762;52.006;8.424;2023-07-29T00:25:18;4.70;;;2.33;;
76063;SDS011;64762;52.006;8.424;2023-07-29T00:27:44;4.50;;;2.30;;
76063;SDS011;64762;52.006;8.424;2023-07-29T00:30:09;6.17;;;2.30;;
76063;SDS011;64762;52.006;8.424;2023-07-29T00:32:35;4.68;;;2.05;;
76063;SDS011;64762;52.006;8.424;2023-07-29T00:35:00;4.03;;;2.05;;
76063;SDS011;64762;52.006;8.424;2023-07-29T00:37:26;5.20;;;2.67;;
76063;SDS011;64762;52.006;8.424;2023-07-29T00:39:52;6.72;;;2.40;;
76063;SDS011;64762;52.006;8.424;2023-07-29T00:42:17;4.40;;;2.30;;
76063;SDS011;64762;52.006;8.424;2023-07-29T00:44:43;7.93;;;2.87;;
76063;SDS011;64762;52.006;8.424;2023-07-29T00:47:08;4.50;;;2.30;;
76063;SDS011;64762;52.006;8.424;2023-07-29T00:49:33;4.72;;;2.28;;
76063;SDS011;64762;52.006;8.424;2023-07-29T00:51:59;4.45;;;2.22;;
76063;SDS011;64762;52.006;8.424;2023-07-29T00:54:24;4.38;;;2.38;;
76063;SDS011;64762;52.006;8.424;2023-07-29T00:56:50;5.73;;;2.70;;
76063;SDS011;64762;52.006;8.424;2023-07-29T00:59:15;8.13;;;2.78;;
76063;SDS011;64762;52.006;8.424;2023-07-29T01:01:41;5.70;;;2.40;;
76063;SDS011;64762;52.006;8.424;2023-07-29T01:04:07;6.82;;;2.50;;
76063;SDS011;64762;52.006;8.424;2023-07-29T01:06:44;4.97;;;2.53;;
76063;SDS011;64762;52.006;8.424;2023-07-29T01:10:13;4.82;;;2.50;;
76063;SDS011;64762;52.006;8.424;2023-07-29T01:12:26;4.22;;;2.20;;
76063;SDS011;64762;52.006;8.424;2023-07-29T01:17:40;6.25;;;2.67;;
76063;SDS011;64762;52.006;8.424;2023-07-29T01:20:08;5.18;;;2.70;;
76063;SDS011;64762;52.006;8.424;2023-07-29T01:22:36;5.03;;;2.63;;
76063;SDS011;64762;52.006;8.424;2023-07-29T01:25:02;4.47;;;2.40;;
76063;SDS011;64762;52.006;8.424;2023-07-29T01:27:28;7.97;;;2.72;;
76063;SDS011;64762;52.006;8.424;2023-07-29T01:29:54;5.25;;;2.47;;
76063;SDS011;64762;52.006;8.424;2023-07-29T01:37:55;10.02;;;2.85;;
76063;SDS011;64762;52.006;8.424;2023-07-29T01:40:25;7.10;;;3.17;;
76063;SDS011;64762;52.006;8.424;2023-07-29T01:42:51;5.97;;;3.05;;
76063;SDS011;64762;52.006;8.424;2023-07-29T01:45:17;8.05;;;2.85;;
76063;SDS011;64762;52.006;8.424;2023-07-29T01:47:42;5.20;;;2.90;;
76063;SDS011;64762;52.006;8.424;2023-07-29T01:50:08;6.50;;;2.97;;
76063;SDS011;64762;52.006;8.424;2023-07-29T01:52:34;6.45;;;3.35;;
76063;SDS011;64762;52.006;8.424;2023-07-29T01:54:59;5.67;;;2.80;;
76063;SDS011;64762;52.006;8.424;2023-07-29T01:57:24;5.63;;;3.23;;
76063;SDS011;64762;52.006;8.424;2023-07-29T01:59:50;4.93;;;2.77;;
76063;SDS011;64762;52.006;8.424;2023-07-29T02:02:15;6.93;;;3.22;;
76063;SDS011;64762;52.006;8.424;2023-07-29T02:04:40;7.63;;;3.83;;
76063;SDS011;64762;52.006;8.424;2023-07-29T02:07:06;11.07;;;3.23;;
76063;SDS011;64762;52.006;8.424;2023-07-29T02:09:31;4.73;;;3.00;;
76063;SDS011;64762;52.006;8.424;2023-07-29T02:11:57;6.33;;;3.60;;
76063;SDS011;64762;52.006;8.424;2023-07-29T02:14:22;10.95;;;3.50;;
76063;SDS011;64762;52.006;8.424;2023-07-29T02:16:48;5.78;;;3.20;;
76063;SDS011;64762;52.006;8.424;2023-07-29T02:19:13;7.47;;;3.17;;
76063;SDS011;64762;52.006;8.424;2023-07-29T02:21:38;6.17;;;3.80;;
76063;SDS011;64762;52.006;8.424;2023-07-29T02:24:04;6.83;;;3.43;;
76063;SDS011;64762;52.006;8.424;2023-07-29T02:26:29;6.53;;;3.23;;
76063;SDS011;64762;52.006;8.424;2023-07-29T02:28:54;5.90;;;3.35;;
76063;SDS011;64762;52.006;8.424;2023-07-29T02:31:20;8.03;;;3.37;;
76063;SDS011;64762;52.006;8.424;2023-07-29T02:33:47;9.88;;;3.03;;
76063;SDS011;64762;52.006;8.424;2023-07-29T02:36:13;5.60;;;3.33;;
76063;SDS011;64762;52.006;8.424;2023-07-29T02:38:39;5.55;;;3.25;;
76063;SDS011;64762;52.006;8.424;2023-07-29T02:41:05;6.35;;;4.07;;
76063;SDS011;64762;52.006;8.424;2023-07-29T02:43:30;5.57;;;3.35;;
76063;SDS011;64762;52.006;8.424;2023-07-29T02:45:55;6.03;;;3.30;;
76063;SDS011;64762;52.006;8.424;2023-07-29T02:48:21;6.27;;;3.30;;
76063;SDS011;64762;52.006;8.424;2023-07-29T02:50:46;7.63;;;3.93;;
76063;SDS011;64762;52.006;8.424;2023-07-29T02:53:11;10.00;;;3.63;;
76063;SDS011;64762;52.006;8.424;2023-07-29T02:55:40;7.77;;;3.20;;
76063;SDS011;64762;52.006;8.424;2023-07-29T02:58:05;6.38;;;3.20;;
76063;SDS011;64762;52.006;8.424;2023-07-29T03:00:31;6.13;;;3.50;;
76063;SDS011;64762;52.006;8.424;2023-07-29T03:02:57;5.95;;;3.42;;
76063;SDS011;64762;52.006;8.424;2023-07-29T03:05:23;7.70;;;3.67;;
76063;SDS011;64762;52.006;8.424;2023-07-29T03:07:48;10.00;;;3.40;;
76063;SDS011;64762;52.006;8.424;2023-07-29T03:10:13;8.73;;;3.77;;
76063;SDS011;64762;52.006;8.424;2023-07-29T03:12:40;8.63;;;3.70;;
76063;SDS011;64762;52.006;8.424;2023-07-29T03:15:05;6.27;;;3.27;;
76063;SDS011;64762;52.006;8.424;2023-07-29T03:17:31;5.35;;;3.22;;
76063;SDS011;64762;52.006;8.424;2023-07-29T03:19:56;5.60;;;3.40;;
76063;SDS011;64762;52.006;8.424;2023-07-29T03:22:21;6.97;;;3.70;;
76063;SDS011;64762;52.006;8.424;2023-07-29T03:24:47;6.73;;;3.37;;
76063;SDS011;64762;52.006;8.424;2023-07-29T03:27:12;6.47;;;3.75;;
76063;SDS011;64762;52.006;8.424;2023-07-29T03:29:38;7.30;;;3.42;;
76063;SDS011;64762;52.006;8.424;2023-07-29T03:32:03;5.63;;;2.90;;
76063;SDS011;64762;52.006;8.424;2023-07-29T03:34:29;5.78;;;3.38;;
76063;SDS011;64762;52.006;8.424;2023-07-29T03:36:54;6.50;;;3.77;;
76063;SDS011;64762;52.006;8.424;2023-07-29T03:39:20;5.93;;;3.17;;
76063;SDS011;64762;52.006;8.424;2023-07-29T03:41:45;5.22;;;3.33;;
76063;SDS011;64762;52.006;8.424;2023-07-29T03:44:10;5.43;;;3.13;;
76063;SDS011;64762;52.006;8.424;2023-07-29T03:46:36;7.43;;;3.37;;
76063;SDS011;64762;52.006;8.424;2023-07-29T03:49:01;7.20;;;3.37;;
76063;SDS011;64762;52.006;8.424;2023-07-29T03:51:26;5.60;;;2.93;;
76063;SDS011;64762;52.006;8.424;2023-07-29T03:53:51;5.17;;;3.07;;
76063;SDS011;64762;52.006;8.424;2023-07-29T03:56:17;5.53;;;3.07;;
76063;SDS011;64762;52.006;8.424;2023-07-29T03:58:42;5.37;;;3.00;;
76063;SDS011;64762;52.006;8.424;2023-07-29T04:01:09;5.15;;;2.97;;
76063;SDS011;64762;52.006;8.424;2023-07-29T04:03:34;5.50;;;3.03;;
76063;SDS011;64762;52.006;8.424;2023-07-29T04:05:59;6.10;;;3.17;;
76063;SDS011;64762;52.006;8.424;2023-07-29T04:08:25;7.10;;;2.90;;
76063;SDS011;64762;52.006;8.424;2023-07-29T04:10:50;5.30;;;3.10;;
76063;SDS011;64762;52.006;8.424;2023-07-29T04:13:16;6.60;;;3.28;;
76063;SDS011;64762;52.006;8.424;2023-07-29T04:15:41;6.35;;;3.22;;
76063;SDS011;64762;52.006;8.424;2023-07-29T04:18:06;8.97;;;3.13;;
76063;SDS011;64762;52.006;8.424;2023-07-29T04:20:32;6.57;;;3.43;;
76063;SDS011;64762;52.006;8.424;2023-07-29T04:22:58;5.95;;;3.45;;
76063;SDS011;64762;52.006;8.424;2023-07-29T04:25:24;5.33;;;3.23;;
76063;SDS011;64762;52.006;8.424;2023-07-29T04:27:49;6.53;;;3.37;;
76063;SDS011;64762;52.006;8.424;2023-07-29T04:30:14;7.40;;;3.13;;
76063;SDS011;64762;52.006;8.424;2023-07-29T04:32:40;5.47;;;3.45;;
76063;SDS011;64762;52.006;8.424;2023-07-29T04:35:07;5.70;;;3.38;;
76063;SDS011;64762;52.006;8.424;2023-07-29T04:37:33;6.30;;;3.28;;
76063;SDS011;64762;52.006;8.424;2023-07-29T04:39:58;6.40;;;3.20;;
76063;SDS011;64762;52.006;8.424;2023-07-29T04:42:23;4.50;;;2.70;;
76063;SDS011;64762;52.006;8.424;2023-07-29T04:44:48;5.63;;;3.27;;
76063;SDS011;64762;52.006;8.424;2023-07-29T04:47:14;5.17;;;3.50;;
76063;SDS011;64762;52.006;8.424;2023-07-29T04:49:39;5.75;;;3.80;;
76063;SDS011;64762;52.006;8.424;2023-07-29T04:52:05;7.70;;;3.70;;
76063;SDS011;64762;52.006;8.424;2023-07-29T04:54:30;5.25;;;3.10;;
76063;SDS011;64762;52.006;8.424;2023-07-29T04:56:56;8.30;;;3.27;;
76063;SDS011;64762;52.006;8.424;2023-07-29T04:59:21;6.75;;;3.03;;
76063;SDS011;64762;52.006;8.424;2023-07-29T05:01:46;4.83;;;3.03;;
76063;SDS011;64762;52.006;8.424;2023-07-29T05:04:12;5.17;;;3.00;;
76063;SDS011;64762;52.006;8.424;2023-07-29T05:06:37;6.03;;;3.00;;
76063;SDS011;64762;52.006;8.424;2023-07-29T05:09:12;6.00;;;3.30;;
76063;SDS011;64762;52.006;8.424;2023-07-29T05:11:41;5.15;;;2.88;;
76063;SDS011;64762;52.006;8.424;2023-07-29T05:14:07;7.22;;;3.40;;
76063;SDS011;64762;52.006;8.424;2023-07-29T05:16:33;5.03;;;3.00;;
76063;SDS011;64762;52.006;8.424;2023-07-29T05:18:59;5.60;;;3.90;;
76063;SDS011;64762;52.006;8.424;2023-07-29T05:21:24;6.30;;;3.50;;
76063;SDS011;64762;52.006;8.424;2023-07-29T05:23:49;5.50;;;3.20;;
76063;SDS011;64762;52.006;8.424;2023-07-29T05:26:15;4.97;;;3.10;;
76063;SDS011;64762;52.006;8.424;2023-07-29T05:28:40;5.80;;;2.92;;
76063;SDS011;64762;52.006;8.424;2023-07-29T05:31:05;6.43;;;4.43;;
76063;SDS011;64762;52.006;8.424;2023-07-29T05:33:31;7.72;;;3.35;;
76063;SDS011;64762;52.006;8.424;2023-07-29T05:35:56;5.43;;;3.30;;
76063;SDS011;64762;52.006;8.424;2023-07-29T05:38:22;5.97;;;3.20;;
76063;SDS011;64762;52.006;8.424;2023-07-29T05:40:50;5.10;;;2.87;;
76063;SDS011;64762;52.006;8.424;2023-07-29T05:43:15;10.13;;;3.28;;
76063;SDS011;64762;52.006;8.424;2023-07-29T05:45:41;8.17;;;4.20;;
76063;SDS011;64762;52.006;8.424;2023-07-29T05:48:06;9.27;;;3.77;;
76063;SDS011;64762;52.006;8.424;2023-07-29T05:50:31;8.10;;;3.57;;
76063;SDS011;64762;52.006;8.424;2023-07-29T05:52:57;5.87;;;3.30;;
76063;SDS011;64762;52.006;8.424;2023-07-29T05:55:22;6.90;;;3.00;;
76063;SDS011;64762;52.006;8.424;2023-07-29T05:57:47;6.53;;;3.70;;
76063;SDS011;64762;52.006;8.424;2023-07-29T06:00:13;6.50;;;3.27;;
76063;SDS011;64762;52.006;8.424;2023-07-29T06:02:38;7.30;;;3.33;;
76063;SDS011;64762;52.006;8.424;2023-07-29T06:05:05;5.35;;;3.00;;
76063;SDS011;64762;52.006;8.424;2023-07-29T06:07:31;5.97;;;3.50;;
76063;SDS011;64762;52.006;8.424;2023-07-29T06:09:58;5.68;;;2.95;;
76063;SDS011;64762;52.006;8.424;2023-07-29T06:12:24;6.47;;;3.22;;
76063;SDS011;64762;52.006;8.424;2023-07-29T06:14:49;6.30;;;3.93;;
76063;SDS011;64762;52.006;8.424;2023-07-29T06:17:14;5.33;;;3.47;;
76063;SDS011;64762;52.006;8.424;2023-07-29T06:19:40;7.23;;;4.00;;
76063;SDS011;64762;52.006;8.424;2023-07-29T06:22:05;7.00;;;3.53;;
76063;SDS011;64762;52.006;8.424;2023-07-29T06:24:30;6.40;;;3.50;;
76063;SDS011;64762;52.006;8.424;2023-07-29T06:26:56;6.63;;;3.60;;
76063;SDS011;64762;52.006;8.424;2023-07-29T06:29:21;5.30;;;3.03;;
76063;SDS011;64762;52.006;8.424;2023-07-29T06:31:46;9.50;;;3.83;;
76063;SDS011;64762;52.006;8.424;2023-07-29T06:34:12;7.60;;;3.90;;
76063;SDS011;64762;52.006;8.424;2023-07-29T06:36:37;6.47;;;3.70;;
76063;SDS011;64762;52.006;8.424;2023-07-29T06:39:02;6.43;;;3.10;;
76063;SDS011;64762;52.006;8.424;2023-07-29T06:41:28;7.00;;;3.83;;
76063;SDS011;64762;52.006;8.424;2023-07-29T06:43:53;7.63;;;3.80;;
76063;SDS011;64762;52.006;8.424;2023-07-29T06:46:18;5.47;;;3.57;;
76063;SDS011;64762;52.006;8.424;2023-07-29T06:48:44;7.07;;;3.97;;
76063;SDS011;64762;52.006;8.424;2023-07-29T06:51:09;7.53;;;3.90;;
76063;SDS011;64762;52.006;8.424;2023-07-29T06:53:34;7.00;;;4.50;;
76063;SDS011;64762;52.006;8.424;2023-07-29T06:56:00;9.17;;;4.73;;
76063;SDS011;64762;52.006;8.424;2023-07-29T06:58:25;10.40;;;6.17;;
76063;SDS011;64762;52.006;8.424;2023-07-29T07:00:50;16.17;;;6.93;;
76063;SDS011;64762;52.006;8.424;2023-07-29T07:03:15;13.23;;;7.30;;
76063;SDS011;64762;52.006;8.424;2023-07-29T07:05:41;17.87;;;7.53;;
76063;SDS011;64762;52.006;8.424;2023-07-29T07:08:06;13.23;;;7.60;;
76063;SDS011;64762;52.006;8.424;2023-07-29T07:10:31;19.17;;;9.70;;
76063;SDS011;64762;52.006;8.424;2023-07-29T07:12:58;20.15;;;11.38;;
76063;SDS011;64762;52.006;8.424;2023-07-29T07:15:24;20.30;;;10.67;;
76063;SDS011;64762;52.006;8.424;2023-07-29T07:17:49;21.60;;;11.40;;
76063;SDS011;64762;52.006;8.424;2023-07-29T07:20:16;22.00;;;12.15;;
76063;SDS011;64762;52.006;8.424;2023-07-29T07:22:41;19.03;;;10.80;;
76063;SDS011;64762;52.006;8.424;2023-07-29T07:25:06;21.00;;;11.20;;
76063;SDS011;64762;52.006;8.424;2023-07-29T07:27:32;17.55;;;10.45;;
76063;SDS011;64762;52.006;8.424;2023-07-29T07:29:57;17.90;;;10.00;;
76063;SDS011;64762;52.006;8.424;2023-07-29T07:32:22;17.10;;;9.27;;
76063;SDS011;64762;52.006;8.424;2023-07-29T07:34:48;16.03;;;9.40;;
76063;SDS011;64762;52.006;8.424;2023-07-29T07:37:13;17.80;;;9.27;;
76063;SDS011;64762;52.006;8.424;2023-07-29T07:39:38;14.10;;;9.63;;
76063;SDS011;64762;52.006;8.424;2023-07-29T07:42:04;16.97;;;8.17;;
76063;SDS011;64762;52.006;8.424;2023-07-29T07:44:29;13.98;;;8.43;;
76063;SDS011;64762;52.006;8.424;2023-07-29T07:46:54;12.27;;;7.30;;
76063;SDS011;64762;52.006;8.424;2023-07-29T07:49:20;11.47;;;7.23;;
76063;SDS011;64762;52.006;8.424;2023-07-29T07:51:45;10.30;;;6.80;;
76063;SDS011;64762;52.006;8.424;2023-07-29T07:54:10;10.07;;;6.77;;
76063;SDS011;64762;52.006;8.424;2023-07-29T07:56:36;11.50;;;6.23;;
76063;SDS011;64762;52.006;8.424;2023-07-29T07:59:01;19.53;;;6.93;;
76063;SDS011;64762;52.006;8.424;2023-07-29T08:01:26;8.93;;;5.90;;
76063;SDS011;64762;52.006;8.424;2023-07-29T08:03:52;8.33;;;5.70;;
76063;SDS011;64762;52.006;8.424;2023-07-29T08:06:17;8.27;;;5.20;;
76063;SDS011;64762;52.006;8.424;2023-07-29T08:08:42;6.40;;;4.37;;
76063;SDS011;64762;52.006;8.424;2023-07-29T08:11:07;6.00;;;3.40;;
76063;SDS011;64762;52.006;8.424;2023-07-29T08:13:33;7.22;;;2.97;;
76063;SDS011;64762;52.006;8.424;2023-07-29T08:15:58;7.17;;;2.60;;
76063;SDS011;64762;52.006;8.424;2023-07-29T08:18:23;5.13;;;2.67;;
76063;SDS011;64762;52.006;8.424;2023-07-29T08:21:07;6.80;;;3.00;;
76063;SDS011;64762;52.006;8.424;2023-07-29T08:23:33;6.15;;;3.05;;
76063;SDS011;64762;52.006;8.424;2023-07-29T08:26:00;5.05;;;2.65;;
76063;SDS011;64762;52.006;8.424;2023-07-29T08:30:59;5.15;;;2.92;;
76063;SDS011;64762;52.006;8.424;2023-07-29T08:33:24;5.30;;;2.83;;
76063;SDS011;64762;52.006;8.424;2023-07-29T08:35:50;5.35;;;3.00;;
76063;SDS011;64762;52.006;8.424;2023-07-29T08:38:16;6.85;;;3.53;;
76063;SDS011;64762;52.006;8.424;2023-07-29T08:40:52;6.00;;;3.33;;
76063;SDS011;64762;52.006;8.424;2023-07-29T08:43:23;6.15;;;3.00;;
76063;SDS011;64762;52.006;8.424;2023-07-29T08:45:54;7.40;;;2.88;;
76063;SDS011;64762;52.006;8.424;2023-07-29T08:48:22;5.17;;;1.87;;
76063;SDS011;64762;52.006;8.424;2023-07-29T08:50:49;3.28;;;1.50;;
76063;SDS011;64762;52.006;8.424;2023-07-29T08:53:16;4.75;;;1.83;;
76063;SDS011;64762;52.006;8.424;2023-07-29T08:55:42;3.15;;;1.50;;
76063;SDS011;64762;52.006;8.424;2023-07-29T08:58:07;3.20;;;1.63;;
76063;SDS011;64762;52.006;8.424;2023-07-29T09:00:32;3.90;;;1.73;;
76063;SDS011;64762;52.006;8.424;2023-07-29T09:02:59;3.45;;;1.33;;
76063;SDS011;64762;52.006;8.424;2023-07-29T09:05:29;3.28;;;1.40;;
76063;SDS011;64762;52.006;8.424;2023-07-29T09:07:54;4.40;;;1.57;;
76063;SDS011;64762;52.006;8.424;2023-07-29T09:10:23;2.92;;;1.30;;
76063;SDS011;64762;52.006;8.424;2023-07-29T09:12:51;3.35;;;1.30;;
76063;SDS011;64762;52.006;8.424;2023-07-29T09:15:26;3.05;;;1.52;;
76063;SDS011;64762;52.006;8.424;2023-07-29T09:17:55;3.67;;;1.30;;
76063;SDS011;64762;52.006;8.424;2023-07-29T09:20:25;3.42;;;1.13;;
76063;SDS011;64762;52.006;8.424;2023-07-29T09:25:22;2.80;;;1.40;;
76063;SDS011;64762;52.006;8.424;2023-07-29T09:27:48;2.80;;;1.15;;
76063;SDS011;64762;52.006;8.424;2023-07-29T09:30:17;3.47;;;1.10;;
76063;SDS011;64762;52.006;8.424;2023-07-29T09:32:42;4.43;;;1.00;;
76063;SDS011;64762;52.006;8.424;2023-07-29T09:35:16;3.90;;;1.20;;
76063;SDS011;64762;52.006;8.424;2023-07-29T09:37:43;2.28;;;1.10;;
76063;SDS011;64762;52.006;8.424;2023-07-29T09:40:13;2.38;;;1.17;;
76063;SDS011;64762;52.006;8.424;2023-07-29T09:42:39;3.47;;;1.25;;
76063;SDS011;64762;52.006;8.424;2023-07-29T09:45:05;2.30;;;1.20;;
76063;SDS011;64762;52.006;8.424;2023-07-29T09:47:30;3.42;;;1.45;;
76063;SDS011;64762;52.006;8.424;2023-07-29T09:49:55;3.20;;;1.10;;
76063;SDS011;64762;52.006;8.424;2023-07-29T09:52:21;2.80;;;1.33;;
76063;SDS011;64762;52.006;8.424;2023-07-29T09:54:47;3.10;;;1.30;;
76063;SDS011;64762;52.006;8.424;2023-07-29T09:57:13;2.70;;;1.23;;
76063;SDS011;64762;52.006;8.424;2023-07-29T09:59:39;3.17;;;1.40;;
76063;SDS011;64762;52.006;8.424;2023-07-29T10:02:05;2.53;;;1.17;;
76063;SDS011;64762;52.006;8.424;2023-07-29T10:04:35;3.22;;;1.30;;
76063;SDS011;64762;52.006;8.424;2023-07-29T10:07:01;3.60;;;1.27;;
76063;SDS011;64762;52.006;8.424;2023-07-29T10:09:26;2.80;;;1.50;;
76063;SDS011;64762;52.006;8.424;2023-07-29T10:11:52;3.08;;;1.17;;
76063;SDS011;64762;52.006;8.424;2023-07-29T10:14:18;2.95;;;1.13;;
76063;SDS011;64762;52.006;8.424;2023-07-29T10:16:44;3.47;;;1.00;;
76063;SDS011;64762;52.006;8.424;2023-07-29T10:19:11;3.50;;;0.90;;
76063;SDS011;64762;52.006;8.424;2023-07-29T10:21:39;2.03;;;0.90;;
76063;SDS011;64762;52.006;8.424;2023-07-29T10:24:09;2.92;;;1.20;;
76063;SDS011;64762;52.006;8.424;2023-07-29T10:26:40;3.20;;;1.23;;
76063;SDS011;64762;52.006;8.424;2023-07-29T10:29:07;2.25;;;1.00;;
76063;SDS011;64762;52.006;8.424;2023-07-29T10:31:35;5.53;;;2.08;;
76063;SDS011;64762;52.006;8.424;2023-07-29T10:34:00;3.95;;;1.00;;
76063;SDS011;64762;52.006;8.424;2023-07-29T10:36:26;2.40;;;0.90;;
76063;SDS011;64762;52.006;8.424;2023-07-29T10:38:51;4.25;;;1.00;;
76063;SDS011;64762;52.006;8.424;2023-07-29T10:41:17;2.55;;;1.10;;
76063;SDS011;64762;52.006;8.424;2023-07-29T10:43:42;3.13;;;1.10;;
76063;SDS011;64762;52.006;8.424;2023-07-29T10:56:28;2.28;;;0.90;;
76063;SDS011;64762;52.006;8.424;2023-07-29T10:58:55;3.30;;;1.10;;
76063;SDS011;64762;52.006;8.424;2023-07-29T11:01:31;2.03;;;0.90;;
76063;SDS011;64762;52.006;8.424;2023-07-29T11:09:40;3.65;;;1.10;;
76063;SDS011;64762;52.006;8.424;2023-07-29T11:17:46;3.25;;;0.90;;
76063;SDS011;64762;52.006;8.424;2023-07-29T11:20:12;2.30;;;0.90;;
76063;SDS011;64762;52.006;8.424;2023-07-29T11:22:38;3.22;;;1.02;;
76063;SDS011;64762;52.006;8.424;2023-07-29T11:25:04;2.42;;;1.08;;
76063;SDS011;64762;52.006;8.424;2023-07-29T11:27:32;3.72;;;1.00;;
76063;SDS011;64762;52.006;8.424;2023-07-29T11:29:58;2.77;;;0.97;;
76063;SDS011;64762;52.006;8.424;2023-07-29T11:32:28;3.00;;;1.10;;
76063;SDS011;64762;52.006;8.424;2023-07-29T11:34:53;3.58;;;1.15;;
76063;SDS011;64762;52.006;8.424;2023-07-29T11:37:18;2.53;;;1.20;;
76063;SDS011;64762;52.006;8.424;2023-07-29T11:39:45;3.83;;;1.17;;
76063;SDS011;64762;52.006;8.424;2023-07-29T11:42:11;2.20;;;1.10;;
76063;SDS011;64762;52.006;8.424;2023-07-29T11:44:37;2.40;;;1.13;;
76063;SDS011;64762;52.006;8.424;2023-07-29T11:47:06;3.60;;;1.25;;
76063;SDS011;64762;52.006;8.424;2023-07-29T11:49:33;2.80;;;1.20;;
76063;SDS011;64762;52.006;8.424;2023-07-29T11:51:58;2.85;;;1.10;;
76063;SDS011;64762;52.006;8.424;2023-07-29T11:54:24;3.00;;;1.40;;
76063;SDS011;64762;52.006;8.424;2023-07-29T11:56:50;2.95;;;1.42;;
76063;SDS011;64762;52.006;8.424;2023-07-29T11:59:15;2.53;;;1.10;;
76063;SDS011;64762;52.006;8.424;2023-07-29T12:01:40;2.87;;;1.37;;
76063;SDS011;64762;52.006;8.424;2023-07-29T12:04:06;3.33;;;1.40;;
76063;SDS011;64762;52.006;8.424;2023-07-29T12:06:31;4.00;;;1.50;;
76063;SDS011;64762;52.006;8.424;2023-07-29T12:08:57;4.33;;;1.73;;
76063;SDS011;64762;52.006;8.424;2023-07-29T12:11:22;3.10;;;1.48;;
76063;SDS011;64762;52.006;8.424;2023-07-29T12:13:48;3.28;;;1.77;;
76063;SDS011;64762;52.006;8.424;2023-07-29T12:16:16;12.03;;;2.10;;
76063;SDS011;64762;52.006;8.424;2023-07-29T12:18:43;3.95;;;1.95;;
76063;SDS011;64762;52.006;8.424;2023-07-29T12:21:08;3.30;;;1.80;;
76063;SDS011;64762;52.006;8.424;2023-07-29T12:23:33;3.37;;;1.80;;
76063;SDS011;64762;52.006;8.424;2023-07-29T12:25:59;3.60;;;1.80;;
76063;SDS011;64762;52.006;8.424;2023-07-29T12:28:24;4.43;;;1.70;;
76063;SDS011;64762;52.006;8.424;2023-07-29T12:30:56;3.70;;;1.98;;
76063;SDS011;64762;52.006;8.424;2023-07-29T12:33:29;3.55;;;2.08;;
76063;SDS011;64762;52.006;8.424;2023-07-29T12:35:55;3.38;;;1.70;;
76063;SDS011;64762;52.006;8.424;2023-07-29T12:38:21;4.17;;;2.00;;
76063;SDS011;64762;52.006;8.424;2023-07-29T12:40:46;4.57;;;1.67;;
76063;SDS011;64762;52.006;8.424;2023-07-29T12:43:11;3.17;;;1.50;;
76063;SDS011;64762;52.006;8.424;2023-07-29T12:45:37;2.90;;;1.33;;
76063;SDS011;64762;52.006;8.424;2023-07-29T12:48:04;4.38;;;1.48;;
76063;SDS011;64762;52.006;8.424;2023-07-29T12:50:30;2.87;;;1.30;;
76063;SDS011;64762;52.006;8.424;2023-07-29T12:52:55;3.27;;;1.50;;
76063;SDS011;64762;52.006;8.424;2023-07-29T12:55:20;2.90;;;1.30;;
76063;SDS011;64762;52.006;8.424;2023-07-29T12:57:46;3.23;;;1.17;;
76063;SDS011;64762;52.006;8.424;2023-07-29T13:00:11;2.87;;;1.30;;
76063;SDS011;64762;52.006;8.424;2023-07-29T13:02:37;2.75;;;1.25;;
76063;SDS011;64762;52.006;8.424;2023-07-29T13:05:02;3.77;;;1.37;;
76063;SDS011;64762;52.006;8.424;2023-07-29T13:07:28;2.63;;;1.23;;
76063;SDS011;64762;52.006;8.424;2023-07-29T13:09:53;3.65;;;1.45;;
76063;SDS011;64762;52.006;8.424;2023-07-29T13:12:21;4.27;;;1.50;;
76063;SDS011;64762;52.006;8.424;2023-07-29T13:14:46;3.60;;;1.58;;
76063;SDS011;64762;52.006;8.424;2023-07-29T13:17:12;2.73;;;1.13;;
76063;SDS011;64762;52.006;8.424;2023-07-29T13:19:38;5.32;;;1.30;;
76063;SDS011;64762;52.006;8.424;2023-07-29T13:22:03;3.00;;;1.20;;
76063;SDS011;64762;52.006;8.424;2023-07-29T13:24:29;4.07;;;1.20;;
76063;SDS011;64762;52.006;8.424;2023-07-29T13:26:54;3.40;;;1.30;;
76063;SDS011;64762;52.006;8.424;2023-07-29T13:29:19;3.07;;;1.30;;
76063;SDS011;64762;52.006;8.424;2023-07-29T13:31:45;2.87;;;1.30;;
76063;SDS011;64762;52.006;8.424;2023-07-29T13:34:10;2.80;;;1.30;;
76063;SDS011;64762;52.006;8.424;2023-07-29T13:36:35;3.33;;;1.27;;
76063;SDS011;64762;52.006;8.424;2023-07-29T13:39:01;3.17;;;1.30;;
76063;SDS011;64762;52.006;8.424;2023-07-29T13:41:26;3.00;;;1.23;;
76063;SDS011;64762;52.006;8.424;2023-07-29T13:43:51;6.80;;;1.60;;
76063;SDS011;64762;52.006;8.424;2023-07-29T13:46:16;2.70;;;1.40;;
76063;SDS011;64762;52.006;8.424;2023-07-29T13:48:45;3.33;;;1.35;;
76063;SDS011;64762;52.006;8.424;2023-07-29T13:51:10;2.77;;;1.23;;
76063;SDS011;64762;52.006;8.424;2023-07-29T13:53:35;3.23;;;1.57;;
76063;SDS011;64762;52.006;8.424;2023-07-29T13:56:01;4.30;;;1.50;;
76063;SDS011;64762;52.006;8.424;2023-07-29T13:58:26;6.00;;;2.00;;
76063;SDS011;64762;52.006;8.424;2023-07-29T14:00:51;4.93;;;1.43;;
76063;SDS011;64762;52.006;8.424;2023-07-29T14:03:16;4.67;;;1.40;;
76063;SDS011;64762;52.006;8.424;2023-07-29T14:05:42;2.93;;;1.40;;
76063;SDS011;64762;52.006;8.424;2023-07-29T14:08:07;3.07;;;1.50;;
76063;SDS011;64762;52.006;8.424;2023-07-29T14:10:32;6.30;;;1.50;;
76063;SDS011;64762;52.006;8.424;2023-07-29T14:12:58;3.40;;;1.53;;
76063;SDS011;64762;52.006;8.424;2023-07-29T14:15:23;4.53;;;1.23;;
76063;SDS011;64762;52.006;8.424;2023-07-29T14:17:48;3.23;;;1.60;;
76063;SDS011;64762;52.006;8.424;2023-07-29T14:20:14;3.27;;;1.33;;
76063;SDS011;64762;52.006;8.424;2023-07-29T14:22:39;3.30;;;1.40;;
76063;SDS011;64762;52.006;8.424;2023-07-29T14:25:04;3.27;;;1.53;;
76063;SDS011;64762;52.006;8.424;2023-07-29T14:27:31;3.20;;;1.55;;
76063;SDS011;64762;52.006;8.424;2023-07-29T14:29:56;4.73;;;1.47;;
76063;SDS011;64762;52.006;8.424;2023-07-29T14:32:21;4.47;;;1.40;;
76063;SDS011;64762;52.006;8.424;2023-07-29T14:34:46;3.13;;;1.43;;
76063;SDS011;64762;52.006;8.424;2023-07-29T14:37:12;3.77;;;1.50;;
76063;SDS011;64762;52.006;8.424;2023-07-29T14:39:37;3.40;;;1.67;;
76063;SDS011;64762;52.006;8.424;2023-07-29T14:42:02;4.72;;;1.77;;
76063;SDS011;64762;52.006;8.424;2023-07-29T14:44:28;4.32;;;1.40;;
76063;SDS011;64762;52.006;8.424;2023-07-29T14:46:53;3.10;;;1.70;;
76063;SDS011;64762;52.006;8.424;2023-07-29T14:49:19;5.05;;;1.90;;
76063;SDS011;64762;52.006;8.424;2023-07-29T14:51:45;5.60;;;2.53;;
76063;SDS011;64762;52.006;8.424;2023-07-29T14:54:10;5.40;;;2.80;;
76063;SDS011;64762;52.006;8.424;2023-07-29T14:56:35;3.80;;;2.00;;
76063;SDS011;64762;52.006;8.424;2023-07-29T14:59:01;6.47;;;2.47;;
76063;SDS011;64762;52.006;8.424;2023-07-29T15:01:26;5.13;;;2.50;;
76063;SDS011;64762;52.006;8.424;2023-07-29T15:03:51;7.60;;;2.50;;
76063;SDS011;64762;52.006;8.424;2023-07-29T15:06:16;11.70;;;3.73;;
76063;SDS011;64762;52.006;8.424;2023-07-29T15:08:42;7.03;;;3.40;;
76063;SDS011;64762;52.006;8.424;2023-07-29T15:11:07;6.50;;;3.40;;
76063;SDS011;64762;52.006;8.424;2023-07-29T15:13:32;5.53;;;3.53;;